Time;durP1;ratioP1;P1;durP2;ratioP2;P2;SDS_P1;SDS_P2;PMS_P1;PMS_P2;Temp;Humidity;BMP_temperature;BMP_pressure;BME280_temperature;BME280_humidity;BME280_pressure;Samples;Min_cycle;Max_cycle;Signal;HPM_P1;HPM_P2
2021/08/03 00:00:22;;;;;;;3.28;2.40;;;16.20;73.90;;;;;;5092481;28;20465;-85
2021/08/03 00:02:50;;;;;;;4.20;2.50;;;16.20;73.60;;;;;;5110076;28;20107;-85
2021/08/03 00:05:20;;;;;;;3.55;2.65;;;16.30;73.80;;;;;;5111694;27;20019;-85
2021/08/03 00:07:47;;;;;;;3.38;2.17;;;16.30;74.20;;;;;;5110553;28;20476;-85
2021/08/03 00:10:17;;;;;;;3.13;2.10;;;16.40;74.40;;;;;;5110133;28;20019;-86
2021/08/03 00:12:51;;;;;;;3.88;2.05;;;16.40;74.20;;;;;;5109677;28;20015;-85
2021/08/03 00:15:21;;;;;;;3.63;2.50;;;16.40;74.00;;;;;;5108716;28;20074;-85
2021/08/03 00:17:51;;;;;;;2.78;2.00;;;16.40;74.00;;;;;;5088386;28;20085;-85
2021/08/03 00:20:17;;;;;;;3.08;2.28;;;16.50;74.20;;;;;;5109699;28;20036;-85
2021/08/03 00:22:43;;;;;;;4.57;2.40;;;16.50;74.20;;;;;;5089528;28;20113;-85
2021/08/03 00:25:11;;;;;;;4.45;2.30;;;16.50;74.10;;;;;;5108140;28;20110;-85
2021/08/03 00:27:36;;;;;;;5.00;2.33;;;16.50;74.20;;;;;;5091891;28;20391;-84
2021/08/03 00:30:03;;;;;;;3.10;2.03;;;16.60;74.10;;;;;;5110475;28;20031;-85
2021/08/03 00:32:28;;;;;;;3.05;2.08;;;16.60;74.30;;;;;;5091153;28;20036;-85
2021/08/03 00:34:54;;;;;;;2.40;2.20;;;16.60;73.90;;;;;;5091070;28;20115;-85
2021/08/03 00:37:20;;;;;;;6.15;2.40;;;16.60;73.60;;;;;;5110009;28;20483;-84
2021/08/03 00:39:45;;;;;;;6.60;2.47;;;16.50;73.60;;;;;;5091778;28;20924;-84
2021/08/03 00:42:11;;;;;;;3.90;2.30;;;16.50;73.30;;;;;;5091911;28;20046;-84
2021/08/03 00:44:42;;;;;;;2.67;1.83;;;16.50;73.30;;;;;;5125139;27;20114;-85
2021/08/03 00:47:09;;;;;;;3.15;2.33;;;16.40;73.30;;;;;;5106942;28;20109;-85
2021/08/03 00:49:35;;;;;;;3.28;2.08;;;16.40;73.60;;;;;;5095473;28;20108;-84
2021/08/03 00:52:03;;;;;;;3.08;1.90;;;16.40;73.60;;;;;;5109245;28;21023;-84
2021/08/03 00:54:28;;;;;;;2.17;1.88;;;16.40;73.80;;;;;;5091055;28;20132;-84
2021/08/03 00:56:56;;;;;;;2.35;2.08;;;16.30;73.80;;;;;;5109771;28;20487;-84
2021/08/03 00:59:21;;;;;;;3.65;2.10;;;16.30;73.60;;;;;;5108874;28;20039;-83
2021/08/03 01:01:47;;;;;;;4.80;2.10;;;16.30;73.50;;;;;;5126272;27;20097;-84
2021/08/03 01:04:14;;;;;;;2.72;2.05;;;16.30;73.40;;;;;;5114708;27;20020;-84
2021/08/03 01:06:46;;;;;;;3.47;2.17;;;16.30;73.60;;;;;;5113959;27;20016;-84
2021/08/03 01:09:39;;;;;;;2.60;2.10;;;16.20;73.00;;;;;;5091974;28;20076;-84
2021/08/03 01:12:05;;;;;;;2.53;1.83;;;16.10;73.00;;;;;;5096170;28;20476;-84
2021/08/03 01:14:38;;;;;;;4.05;2.38;;;16.00;73.30;;;;;;5095384;28;20062;-84
2021/08/03 01:17:36;;;;;;;3.67;2.20;;;15.90;73.40;;;;;;5110363;27;20042;-83
2021/08/03 01:20:08;;;;;;;2.35;1.92;;;15.80;73.50;;;;;;5094289;28;20032;-84
2021/08/03 01:23:10;;;;;;;2.85;2.30;;;15.80;73.70;;;;;;5113432;27;20039;-85
2021/08/03 01:26:10;;;;;;;3.03;2.15;;;15.70;73.70;;;;;;5103532;28;20039;-85
2021/08/03 01:28:40;;;;;;;3.13;2.30;;;15.70;75.00;;;;;;5113670;28;20039;-85
2021/08/03 01:31:10;;;;;;;4.18;2.00;;;15.70;74.40;;;;;;5112988;27;20574;-85
2021/08/03 01:33:44;;;;;;;4.30;2.15;;;15.60;74.20;;;;;;5129299;27;20032;-85
2021/08/03 01:36:11;;;;;;;3.88;2.33;;;15.60;74.70;;;;;;5110247;27;20036;-85
2021/08/03 01:38:41;;;;;;;4.28;2.45;;;15.60;75.10;;;;;;5091230;28;20023;-85
2021/08/03 01:41:09;;;;;;;4.82;2.22;;;15.70;75.30;;;;;;5111910;27;20023;-85
2021/08/03 01:43:36;;;;;;;3.65;2.60;;;15.70;75.20;;;;;;5112472;28;20430;-85
2021/08/03 01:46:03;;;;;;;3.83;2.60;;;15.70;75.10;;;;;;5110969;28;20113;-85
2021/08/03 01:48:29;;;;;;;4.07;2.55;;;15.80;75.20;;;;;;5093347;28;20032;-85
2021/08/03 01:50:55;;;;;;;4.13;2.90;;;15.70;75.30;;;;;;5094057;27;20036;-84
2021/08/03 01:53:24;;;;;;;5.43;2.38;;;15.80;75.40;;;;;;5111643;28;20573;-84
2021/08/03 01:55:53;;;;;;;2.88;2.22;;;15.80;75.50;;;;;;5112401;27;20487;-85
2021/08/03 01:58:20;;;;;;;3.58;2.40;;;15.80;75.50;;;;;;5095958;28;20055;-85
2021/08/03 02:00:46;;;;;;;3.50;2.60;;;15.80;75.50;;;;;;5093595;27;20027;-84
2021/08/03 02:03:13;;;;;;;3.60;1.95;;;15.80;75.50;;;;;;5113713;27;20044;-84
2021/08/03 02:05:41;;;;;;;2.85;2.40;;;15.80;75.60;;;;;;5094643;28;20036;-84
2021/08/03 02:08:09;;;;;;;3.80;2.53;;;15.80;75.50;;;;;;5112690;28;20080;-83
2021/08/03 02:10:36;;;;;;;4.72;2.13;;;15.80;75.40;;;;;;5112803;27;20035;-83
2021/08/03 02:13:03;;;;;;;3.97;2.63;;;15.80;75.30;;;;;;5094549;28;20024;-83
2021/08/03 02:18:32;;;;;;;3.80;2.15;;;15.70;75.50;;;;;;5112991;27;20131;-85
2021/08/03 02:20:58;;;;;;;2.85;2.35;;;15.70;75.60;;;;;;5093424;27;20422;-85
2021/08/03 02:23:23;;;;;;;3.17;2.28;;;15.60;75.30;;;;;;5112756;27;20475;-86
2021/08/03 02:25:49;;;;;;;4.20;2.50;;;15.60;75.50;;;;;;5110601;27;20051;-86
2021/08/03 02:28:15;;;;;;;4.63;2.58;;;15.50;75.50;;;;;;5112685;27;20015;-86
2021/08/03 02:30:44;;;;;;;5.75;2.50;;;15.50;75.70;;;;;;5112703;27;20379;-85
2021/08/03 02:33:24;;;;;;;5.43;2.75;;;15.50;75.20;;;;;;5111741;27;20027;-84
2021/08/03 02:36:02;;;;;;;4.90;2.85;;;15.40;75.60;;;;;;5111419;28;20123;-85
2021/08/03 02:38:29;;;;;;;3.85;2.45;;;15.30;75.60;;;;;;5111276;27;20063;-85
2021/08/03 02:40:56;;;;;;;7.80;2.90;;;15.30;76.00;;;;;;5092825;27;20503;-85
2021/08/03 02:43:25;;;;;;;3.65;2.70;;;15.20;75.80;;;;;;5111234;27;20072;-84
2021/08/03 02:45:53;;;;;;;6.00;2.90;;;15.20;76.00;;;;;;5108829;28;20038;-84
2021/08/03 02:48:21;;;;;;;3.75;2.88;;;15.20;76.30;;;;;;5111189;27;20034;-84
2021/08/03 02:50:47;;;;;;;5.97;2.85;;;15.20;76.60;;;;;;5109787;27;20027;-84
2021/08/03 02:53:42;;;;;;;4.10;3.13;;;15.20;76.80;;;;;;5092705;28;20023;-84
2021/08/03 02:56:10;;;;;;;3.10;2.70;;;15.20;76.40;;;;;;5111346;27;20039;-84
2021/08/03 02:58:51;;;;;;;4.00;2.72;;;15.10;76.60;;;;;;5111188;28;20106;-85
2021/08/03 03:01:21;;;;;;;3.72;2.92;;;15.10;76.60;;;;;;5110409;27;20015;-85
2021/08/03 03:03:52;;;;;;;2.83;2.45;;;15.10;76.80;;;;;;5111011;28;20510;-85
2021/08/03 03:06:22;;;;;;;3.40;2.45;;;15.10;76.90;;;;;;5092211;28;20483;-85
2021/08/03 03:08:47;;;;;;;3.50;2.88;;;15.10;76.60;;;;;;5110512;27;20373;-85
2021/08/03 03:11:15;;;;;;;5.18;3.10;;;15.00;77.10;;;;;;5092919;28;20027;-84
2021/08/03 03:13:45;;;;;;;3.70;2.80;;;15.00;76.90;;;;;;5111697;27;20031;-85
2021/08/03 03:16:14;;;;;;;4.90;3.00;;;15.00;77.20;;;;;;5107371;28;20091;-85
2021/08/03 03:18:40;;;;;;;4.10;2.95;;;15.00;77.00;;;;;;5110619;28;20019;-85
2021/08/03 03:21:07;;;;;;;3.88;2.50;;;14.90;77.30;;;;;;5109394;28;20059;-85
2021/08/03 03:23:35;;;;;;;4.15;2.80;;;14.90;77.30;;;;;;5109521;28;20019;-85
2021/08/03 03:26:03;;;;;;;3.60;2.80;;;14.80;77.40;;;;;;5091755;28;20157;-85
2021/08/03 03:28:31;;;;;;;3.55;2.78;;;14.90;77.50;;;;;;5111186;27;20027;-85
2021/08/03 03:30:59;;;;;;;4.55;2.97;;;14.80;77.50;;;;;;5093114;28;20020;-84
2021/08/03 03:33:25;;;;;;;4.82;2.70;;;14.80;77.60;;;;;;5108210;27;20443;-85
2021/08/03 03:35:55;;;;;;;3.60;2.60;;;14.80;77.60;;;;;;5125822;27;20046;-85
2021/08/03 03:38:25;;;;;;;4.22;2.90;;;14.80;77.60;;;;;;5109937;28;20775;-85
2021/08/03 03:40:51;;;;;;;4.93;2.63;;;14.70;77.90;;;;;;5109811;27;20118;-84
2021/08/03 03:43:19;;;;;;;3.80;2.35;;;14.70;77.90;;;;;;5092166;28;20019;-85
2021/08/03 03:45:49;;;;;;;4.05;2.97;;;14.70;78.00;;;;;;5110040;27;20701;-85
2021/08/03 03:48:20;;;;;;;4.55;2.63;;;14.70;77.80;;;;;;5090718;28;20023;-85
2021/08/03 03:50:51;;;;;;;5.93;2.88;;;14.60;78.00;;;;;;5085567;28;20067;-84
2021/08/03 03:53:21;;;;;;;3.08;2.50;;;14.70;78.10;;;;;;5090972;28;20069;-85
2021/08/03 03:55:54;;;;;;;3.30;2.65;;;14.70;78.20;;;;;;5110727;28;20506;-84
2021/08/03 03:58:20;;;;;;;4.13;2.80;;;14.70;78.30;;;;;;5109908;28;20095;-84
2021/08/03 04:00:47;;;;;;;4.40;3.25;;;14.70;78.70;;;;;;5092841;28;20031;-85
2021/08/03 04:03:19;;;;;;;3.40;2.83;;;14.70;78.90;;;;;;5110258;27;20062;-84
2021/08/03 04:05:47;;;;;;;3.78;3.00;;;14.90;79.00;;;;;;5109524;28;20038;-85
2021/08/03 04:08:13;;;;;;;4.68;3.20;;;14.80;79.00;;;;;;5109082;28;20020;-84
2021/08/03 04:10:39;;;;;;;3.70;3.08;;;14.90;79.70;;;;;;5110516;28;20057;-85
2021/08/03 04:13:05;;;;;;;4.78;3.20;;;14.90;78.60;;;;;;5110591;28;20023;-85
2021/08/03 04:15:34;;;;;;;4.22;3.17;;;14.90;78.60;;;;;;5090448;28;20071;-86
2021/08/03 04:18:00;;;;;;;5.38;3.20;;;15.00;78.80;;;;;;5124857;27;20131;-85
2021/08/03 04:20:26;;;;;;;4.55;2.63;;;15.00;78.70;;;;;;5109724;28;20027;-85
2021/08/03 04:22:52;;;;;;;3.55;2.95;;;15.00;78.70;;;;;;5126312;27;20080;-85
2021/08/03 04:25:18;;;;;;;3.05;2.65;;;15.00;78.70;;;;;;5109909;28;20526;-85
2021/08/03 04:27:44;;;;;;;3.78;3.05;;;15.00;78.40;;;;;;5110294;28;20032;-85
2021/08/03 04:30:12;;;;;;;4.18;2.90;;;15.10;78.50;;;;;;5110482;28;20026;-85
2021/08/03 04:32:38;;;;;;;3.28;2.78;;;15.10;78.00;;;;;;5109372;28;20047;-85
2021/08/03 04:35:05;;;;;;;3.80;2.92;;;15.10;78.30;;;;;;5109826;28;20071;-84
2021/08/03 04:37:45;;;;;;;4.78;2.80;;;15.10;78.30;;;;;;5093231;28;20030;-85
2021/08/03 04:40:12;;;;;;;4.50;2.90;;;15.10;78.20;;;;;;5111795;27;20012;-84
2021/08/03 04:42:38;;;;;;;3.47;2.88;;;15.10;78.40;;;;;;5106130;28;20032;-85
2021/08/03 04:45:05;;;;;;;3.95;2.80;;;15.10;78.40;;;;;;5114383;27;20027;-85
2021/08/03 04:47:31;;;;;;;4.78;2.70;;;15.10;78.30;;;;;;5111620;28;20042;-85
2021/08/03 04:49:57;;;;;;;3.53;2.50;;;15.20;78.20;;;;;;5092333;27;20020;-85
2021/08/03 04:52:23;;;;;;;3.70;2.65;;;15.20;78.30;;;;;;5096221;27;20031;-85
2021/08/03 04:54:48;;;;;;;2.88;2.55;;;15.30;78.50;;;;;;5114307;27;20028;-85
2021/08/03 04:57:14;;;;;;;4.05;2.78;;;15.20;78.20;;;;;;5095002;28;20038;-85
2021/08/03 04:59:40;;;;;;;4.10;2.72;;;15.30;78.10;;;;;;5112379;27;20129;-85
2021/08/03 05:02:06;;;;;;;2.85;2.55;;;15.30;78.00;;;;;;5109142;27;20035;-85
2021/08/03 05:04:34;;;;;;;3.53;2.65;;;15.30;78.10;;;;;;5114069;27;20095;-85
2021/08/03 05:07:03;;;;;;;3.30;2.80;;;15.30;78.10;;;;;;5114438;27;20027;-86
2021/08/03 05:09:28;;;;;;;5.07;2.80;;;15.30;77.90;;;;;;5113112;27;20034;-85
2021/08/03 05:11:54;;;;;;;3.95;2.75;;;15.30;77.90;;;;;;5113174;27;20028;-85
2021/08/03 05:14:20;;;;;;;3.90;2.80;;;15.40;77.90;;;;;;5110832;28;20111;-85
2021/08/03 05:16:46;;;;;;;4.10;2.45;;;15.40;78.00;;;;;;5113186;27;20044;-85
2021/08/03 05:19:11;;;;;;;3.50;2.40;;;15.40;77.90;;;;;;5094046;27;20043;-85
2021/08/03 05:21:37;;;;;;;3.50;2.90;;;15.40;77.80;;;;;;5112706;27;20037;-85
2021/08/03 05:24:02;;;;;;;3.17;2.50;;;15.40;77.90;;;;;;5113465;27;20035;-83
2021/08/03 05:26:28;;;;;;;3.55;2.85;;;15.40;77.80;;;;;;5112802;27;20051;-84
2021/08/03 05:28:54;;;;;;;4.55;2.60;;;15.40;78.00;;;;;;5129518;27;20039;-85
2021/08/03 05:31:19;;;;;;;3.05;2.53;;;15.40;78.00;;;;;;5112472;27;20395;-85
2021/08/03 05:33:45;;;;;;;4.20;2.70;;;15.40;77.90;;;;;;5113360;27;20023;-85
2021/08/03 05:36:10;;;;;;;4.03;2.80;;;15.40;78.00;;;;;;5112902;28;20059;-85
2021/08/03 05:38:36;;;;;;;4.60;2.50;;;15.40;77.90;;;;;;5093420;28;20077;-85
2021/08/03 05:41:02;;;;;;;3.78;2.53;;;15.50;78.00;;;;;;5113194;27;20024;-85
2021/08/03 05:43:27;;;;;;;5.65;2.83;;;15.50;78.80;;;;;;5112318;27;20027;-84
2021/08/03 05:45:53;;;;;;;6.60;2.75;;;15.50;77.80;;;;;;5113104;27;20419;-84
2021/08/03 05:48:19;;;;;;;3.80;2.40;;;15.60;78.00;;;;;;5112419;28;20095;-84
2021/08/03 05:50:44;;;;;;;3.58;2.47;;;15.70;77.70;;;;;;5112476;27;20027;-84
2021/08/03 05:53:10;;;;;;;4.10;2.50;;;15.70;77.70;;;;;;5113182;27;20020;-84
2021/08/03 05:55:35;;;;;;;5.55;2.88;;;15.70;77.70;;;;;;5112575;27;20035;-85
2021/08/03 05:58:01;;;;;;;3.40;2.63;;;15.70;77.50;;;;;;5112434;27;20020;-85
2021/08/03 06:00:27;;;;;;;4.90;2.60;;;15.80;77.60;;;;;;5128340;27;20042;-85
2021/08/03 06:02:52;;;;;;;3.80;2.55;;;15.80;77.50;;;;;;5112949;27;20019;-85
2021/08/03 06:05:18;;;;;;;5.70;2.55;;;15.80;77.50;;;;;;5094224;28;20046;-85
2021/08/03 06:07:48;;;;;;;3.58;2.20;;;15.90;77.50;;;;;;5111262;27;20160;-84
2021/08/03 06:10:15;;;;;;;5.15;2.63;;;15.90;77.30;;;;;;5093994;28;20399;-85
2021/08/03 06:12:47;;;;;;;4.00;2.67;;;15.90;77.30;;;;;;5094920;28;20020;-85
2021/08/03 06:15:14;;;;;;;2.93;2.20;;;16.00;77.30;;;;;;5113057;28;20044;-85
2021/08/03 06:17:43;;;;;;;4.65;2.38;;;16.00;77.10;;;;;;5112985;27;20028;-84
2021/08/03 06:20:09;;;;;;;3.50;2.72;;;16.00;76.70;;;;;;5108101;27;20030;-84
2021/08/03 06:22:36;;;;;;;4.43;2.58;;;16.10;76.90;;;;;;5093091;28;20142;-85
2021/08/03 06:25:04;;;;;;;2.75;2.35;;;16.00;76.80;;;;;;5114588;27;20058;-85
2021/08/03 06:27:31;;;;;;;3.72;2.15;;;16.10;76.70;;;;;;5100883;27;20023;-86
2021/08/03 06:30:04;;;;;;;5.00;3.30;;;16.10;76.60;;;;;;5105002;27;20477;-86
2021/08/03 06:32:31;;;;;;;5.68;2.40;;;16.10;76.70;;;;;;5112604;27;20099;-87
2021/08/03 06:34:57;;;;;;;3.95;2.60;;;16.10;76.70;;;;;;5116670;27;20023;-87
2021/08/03 06:37:22;;;;;;;3.90;2.72;;;16.20;77.00;;;;;;5119372;27;20027;-87
2021/08/03 06:39:48;;;;;;;4.63;2.75;;;16.20;76.70;;;;;;5117207;27;20027;-88
2021/08/03 06:42:35;;;;;;;2.88;2.15;;;16.20;76.80;;;;;;5115240;27;20499;-85
2021/08/03 06:45:04;;;;;;;4.80;3.00;;;16.30;76.80;;;;;;5115096;27;20047;-85
2021/08/03 06:47:37;;;;;;;6.13;2.60;;;16.30;76.60;;;;;;5094848;27;20161;-86
2021/08/03 06:50:03;;;;;;;3.78;2.85;;;16.40;76.60;;;;;;5115936;27;20027;-87
2021/08/03 06:52:32;;;;;;;5.00;2.90;;;16.30;76.00;;;;;;5093956;27;20038;-85
2021/08/03 06:55:04;;;;;;;4.78;2.80;;;16.30;76.30;;;;;;5098352;27;20051;-79
2021/08/03 06:57:33;;;;;;;3.10;2.17;;;16.30;76.30;;;;;;5115082;27;20035;-78
2021/08/03 07:00:06;;;;;;;3.95;2.50;;;16.30;76.70;;;;;;5111162;27;20027;-84
2021/08/03 07:02:37;;;;;;;5.00;2.70;;;16.40;76.70;;;;;;5118104;27;20516;-84
2021/08/03 07:05:16;;;;;;;3.65;2.60;;;16.30;76.40;;;;;;5078031;28;20118;-82
2021/08/03 07:07:44;;;;;;;4.35;2.58;;;16.30;76.60;;;;;;5092316;28;20028;-85
2021/08/03 07:10:10;;;;;;;3.85;2.40;;;16.40;76.70;;;;;;5123915;27;20054;-86
2021/08/03 07:12:36;;;;;;;3.50;2.70;;;16.40;76.50;;;;;;5095843;28;20032;-88
2021/08/03 07:15:03;;;;;;;3.85;2.42;;;16.50;76.40;;;;;;5111274;27;20044;-87
2021/08/03 07:17:30;;;;;;;4.15;2.80;;;16.50;76.10;;;;;;5111069;28;20062;-88
2021/08/03 07:20:00;;;;;;;2.80;2.28;;;16.60;76.50;;;;;;5108343;28;20150;-85
2021/08/03 07:22:27;;;;;;;4.53;2.47;;;16.60;76.00;;;;;;5111730;28;20019;-83
2021/08/03 07:24:53;;;;;;;2.55;2.20;;;16.60;75.80;;;;;;5110440;28;20395;-84
2021/08/03 07:27:19;;;;;;;3.30;2.50;;;16.70;75.50;;;;;;5109077;28;20024;-85
2021/08/03 07:29:44;;;;;;;4.07;2.70;;;16.70;76.20;;;;;;5093848;28;20019;-85
2021/08/03 07:32:14;;;;;;;5.45;2.97;;;16.80;76.70;;;;;;5108979;28;20035;-84
2021/08/03 07:34:41;;;;;;;4.00;2.90;;;17.00;76.70;;;;;;5109249;28;20099;-83
2021/08/03 07:37:07;;;;;;;4.40;3.08;;;17.10;75.90;;;;;;5118839;27;20167;-85
2021/08/03 07:39:34;;;;;;;6.68;2.83;;;17.20;75.90;;;;;;5093602;28;20030;-85
2021/08/03 07:42:00;;;;;;;4.82;2.50;;;17.20;75.30;;;;;;5109000;28;20035;-85
2021/08/03 07:44:26;;;;;;;3.58;2.60;;;17.30;75.40;;;;;;5110340;28;20028;-82
2021/08/03 07:46:51;;;;;;;3.15;2.10;;;17.40;75.00;;;;;;5111374;28;20377;-84
2021/08/03 07:49:18;;;;;;;2.95;2.17;;;17.30;75.60;;;;;;5111705;28;20372;-82
2021/08/03 07:51:46;;;;;;;5.35;2.47;;;17.30;74.10;;;;;;5111992;28;20051;-89
2021/08/03 07:54:12;;;;;;;3.22;2.17;;;17.20;74.30;;;;;;5111601;28;20205;-89
2021/08/03 07:56:38;;;;;;;3.85;2.35;;;17.10;74.80;;;;;;5109556;28;20135;-87
2021/08/03 07:59:03;;;;;;;2.83;2.53;;;17.10;74.70;;;;;;5109574;28;20032;-88
2021/08/03 08:01:29;;;;;;;3.22;2.30;;;17.20;75.40;;;;;;5110718;28;20558;-88
2021/08/03 08:03:54;;;;;;;4.22;2.55;;;17.00;74.70;;;;;;5097563;28;20090;-89
2021/08/03 08:06:20;;;;;;;3.28;2.55;;;16.90;74.50;;;;;;5108664;28;20020;-88
2021/08/03 08:08:46;;;;;;;5.15;2.78;;;16.80;75.10;;;;;;5112106;27;20470;-85
2021/08/03 08:11:11;;;;;;;3.08;2.40;;;16.90;76.80;;;;;;5113608;28;20023;-91
2021/08/03 08:13:38;;;;;;;3.45;2.40;;;16.90;75.80;;;;;;5110160;28;20048;-89
2021/08/03 08:16:04;;;;;;;3.65;2.30;;;16.90;75.60;;;;;;5094119;28;20051;-91
2021/08/03 08:18:30;;;;;;;3.92;2.22;;;16.90;74.90;;;;;;5110934;28;20507;-88
2021/08/03 08:20:56;;;;;;;6.38;2.60;;;16.90;75.60;;;;;;5110706;28;20059;-93
2021/08/03 08:23:22;;;;;;;3.88;2.13;;;16.90;75.40;;;;;;5109487;28;20065;-92
2021/08/03 08:25:47;;;;;;;3.85;2.38;;;16.90;75.90;;;;;;5108623;28;20056;-87
2021/08/03 08:28:13;;;;;;;4.47;2.55;;;16.90;76.20;;;;;;5112433;28;20020;-87
2021/08/03 08:30:39;;;;;;;3.22;2.40;;;16.90;76.30;;;;;;5086926;28;20054;-89
2021/08/03 08:33:06;;;;;;;2.95;2.40;;;16.90;76.50;;;;;;5106725;28;20038;-82
2021/08/03 08:35:32;;;;;;;2.85;2.45;;;16.80;76.20;;;;;;5117527;27;20047;-91
2021/08/03 08:37:58;;;;;;;4.50;1.98;;;16.80;76.90;;;;;;5108964;28;20028;-91
2021/08/03 08:40:24;;;;;;;5.80;2.53;;;16.80;77.20;;;;;;5111507;28;20031;-90
2021/08/03 08:42:49;;;;;;;5.40;2.45;;;16.80;77.40;;;;;;5110585;28;20024;-90
2021/08/03 08:45:16;;;;;;;5.95;2.60;;;16.90;78.20;;;;;;5110479;28;20028;-84
2021/08/03 08:47:43;;;;;;;3.25;2.30;;;17.00;78.10;;;;;;5109857;28;20027;-85
2021/08/03 08:50:09;;;;;;;3.38;2.17;;;17.20;78.50;;;;;;5114747;28;20729;-89
2021/08/03 08:52:37;;;;;;;3.15;2.20;;;17.20;77.10;;;;;;5118419;27;20027;-89
2021/08/03 08:55:04;;;;;;;3.70;2.47;;;17.20;76.70;;;;;;5112095;28;20169;-86
2021/08/03 08:57:30;;;;;;;3.53;2.55;;;17.30;76.90;;;;;;5124114;27;20143;-89
2021/08/03 08:59:55;;;;;;;3.67;2.38;;;17.40;77.30;;;;;;5107758;28;20110;-84
2021/08/03 09:02:41;;;;;;;4.80;2.80;;;17.40;76.80;;;;;;5123771;27;20024;-84
2021/08/03 09:05:08;;;;;;;3.35;2.42;;;17.50;77.20;;;;;;5125829;28;20020;-90
2021/08/03 09:08:01;;;;;;;3.85;2.53;;;17.50;77.00;;;;;;5110014;28;20516;-92
2021/08/03 09:10:28;;;;;;;5.43;2.60;;;17.50;76.30;;;;;;5105670;28;20035;-84
2021/08/03 09:13:05;;;;;;;4.97;2.67;;;17.40;75.90;;;;;;5125350;28;20028;-82
2021/08/03 09:15:35;;;;;;;4.03;2.70;;;17.30;76.50;;;;;;5110572;28;20104;-82
2021/08/03 09:18:17;;;;;;;3.78;2.60;;;17.40;77.70;;;;;;5110734;28;20038;-91
2021/08/03 09:20:45;;;;;;;3.22;2.63;;;17.60;78.00;;;;;;5115641;28;20019;-85
2021/08/03 09:23:11;;;;;;;4.20;2.55;;;17.70;77.20;;;;;;5119062;27;20015;-86
2021/08/03 09:25:38;;;;;;;5.18;2.83;;;17.70;76.70;;;;;;5109863;27;20019;-90
2021/08/03 09:28:08;;;;;;;3.50;2.50;;;17.70;77.10;;;;;;5128812;27;20471;-90
2021/08/03 09:30:37;;;;;;;3.58;2.58;;;17.80;77.80;;;;;;5114602;27;20034;-88
2021/08/03 09:33:05;;;;;;;4.07;2.60;;;17.80;77.40;;;;;;5111227;27;20038;-88
2021/08/03 09:35:31;;;;;;;4.45;2.95;;;17.90;77.60;;;;;;5115909;28;20028;-89
2021/08/03 09:37:58;;;;;;;3.13;2.13;;;17.80;76.80;;;;;;5097601;28;20024;-87
2021/08/03 09:40:30;;;;;;;3.72;2.30;;;17.70;77.00;;;;;;5115046;28;20032;-90
2021/08/03 09:43:06;;;;;;;3.53;2.72;;;17.70;77.40;;;;;;5115979;27;20019;-88
2021/08/03 09:45:35;;;;;;;3.88;2.50;;;17.80;77.20;;;;;;5125039;27;20051;-88
2021/08/03 09:48:21;;;;;;;5.20;2.42;;;17.80;77.30;;;;;;5113138;27;20128;-92
2021/08/03 09:51:08;;;;;;;5.28;2.30;;;17.80;77.00;;;;;;5110167;27;20028;-92
2021/08/03 09:53:52;;;;;;;3.30;2.33;;;17.80;77.30;;;;;;5120518;27;20023;-92
2021/08/03 09:56:34;;;;;;;3.53;2.58;;;17.70;77.30;;;;;;5120559;27;20061;-91
2021/08/03 09:59:02;;;;;;;4.00;2.30;;;17.70;77.10;;;;;;5110477;27;20027;-90
2021/08/03 10:01:41;;;;;;;4.55;2.60;;;17.60;77.50;;;;;;5095957;27;20473;-92
2021/08/03 10:04:09;;;;;;;4.35;2.65;;;17.50;77.70;;;;;;5131482;27;20034;-90
2021/08/03 10:06:36;;;;;;;3.58;2.33;;;17.60;78.40;;;;;;5096951;28;20026;-93
2021/08/03 10:09:04;;;;;;;3.00;2.38;;;17.70;78.30;;;;;;5112194;27;20058;-92
2021/08/03 10:11:30;;;;;;;4.15;2.78;;;17.60;77.80;;;;;;5113015;28;20403;-91
2021/08/03 10:13:56;;;;;;;3.35;2.30;;;17.60;78.60;;;;;;5112756;28;20024;-91
2021/08/03 10:16:23;;;;;;;3.20;2.38;;;17.60;78.50;;;;;;5114345;27;20074;-90
2021/08/03 10:18:53;;;;;;;3.10;2.33;;;17.70;78.50;;;;;;5114183;28;20438;-91
2021/08/03 10:21:47;;;;;;;3.47;2.58;;;17.70;78.50;;;;;;5107638;27;20020;-90
2021/08/03 10:24:14;;;;;;;3.25;2.40;;;17.90;79.30;;;;;;5111632;27;20046;-93
2021/08/03 10:26:40;;;;;;;2.60;2.25;;;18.00;78.00;;;;;;5123569;27;20483;-92
2021/08/03 10:29:26;;;;;;;3.55;2.20;;;18.20;77.40;;;;;;5106493;28;20035;-89
2021/08/03 10:31:53;;;;;;;2.72;2.17;;;18.30;77.50;;;;;;5107477;27;20043;-90
2021/08/03 10:34:50;;;;;;;3.97;2.28;;;18.40;76.60;;;;;;5108629;27;20027;-91
2021/08/03 10:37:16;;;;;;;2.50;2.13;;;18.40;75.50;;;;;;5102987;28;20528;-85
2021/08/03 10:40:08;;;;;;;2.80;2.05;;;18.30;73.90;;;;;;5093397;28;20106;-85
2021/08/03 10:42:33;;;;;;;2.95;1.90;;;18.10;73.80;;;;;;5086155;27;20043;-84
2021/08/03 10:45:01;;;;;;;2.63;1.95;;;18.00;74.60;;;;;;5121859;27;20395;-86
2021/08/03 10:47:33;;;;;;;2.83;2.30;;;18.00;75.90;;;;;;5119237;27;20035;-87
2021/08/03 10:50:07;;;;;;;3.67;1.67;;;18.30;76.50;;;;;;5088922;27;20027;-91
2021/08/03 10:52:54;;;;;;;3.42;2.10;;;18.30;74.40;;;;;;5116996;27;20024;-88
2021/08/03 10:55:42;;;;;;;4.78;2.33;;;18.20;74.30;;;;;;5124733;27;20088;-87
2021/08/03 10:58:12;;;;;;;2.50;1.83;;;18.20;74.70;;;;;;5094348;28;20019;-86
2021/08/03 11:00:46;;;;;;;3.05;1.80;;;18.10;73.30;;;;;;5127607;27;20505;-92
2021/08/03 11:03:38;;;;;;;3.63;2.03;;;18.10;71.70;;;;;;5118380;27;20023;-86
2021/08/03 11:06:07;;;;;;;3.55;2.20;;;18.10;73.40;;;;;;5115020;27;20024;-90
2021/08/03 11:08:34;;;;;;;3.45;2.17;;;18.20;73.30;;;;;;5100832;27;20023;-90
2021/08/03 11:11:05;;;;;;;2.60;2.03;;;18.30;73.90;;;;;;5124886;27;20022;-91
2021/08/03 11:13:54;;;;;;;2.83;2.03;;;18.60;75.40;;;;;;5128234;27;20055;-90
2021/08/03 11:16:19;;;;;;;2.10;1.77;;;18.80;73.90;;;;;;5109050;27;20372;-91
2021/08/03 11:18:56;;;;;;;3.55;2.10;;;19.00;72.40;;;;;;5119569;27;20027;-93
2021/08/03 11:21:25;;;;;;;2.47;1.80;;;19.20;72.20;;;;;;5126263;27;20502;-91
2021/08/03 11:24:04;;;;;;;2.70;1.70;;;19.30;72.60;;;;;;5103653;27;20390;-90
2021/08/03 11:26:41;;;;;;;2.92;2.08;;;19.50;72.00;;;;;;5120628;27;20055;-87
2021/08/03 11:29:15;;;;;;;2.78;2.10;;;19.60;70.90;;;;;;5122014;27;20447;-90
2021/08/03 11:31:48;;;;;;;5.78;3.10;;;19.90;70.40;;;;;;5111127;27;20039;-90
2021/08/03 11:34:33;;;;;;;;;;;20.00;71.60;;;;;;5109869;28;20583;-85
2021/08/03 11:37:11;;;;;;;2.65;2.22;;;20.20;70.90;;;;;;5113144;28;19922;-92
2021/08/03 11:39:42;;;;;;;3.33;2.00;;;20.20;68.60;;;;;;5109889;28;20016;-90
2021/08/03 11:42:08;;;;;;;2.85;2.20;;;20.20;68.90;;;;;;5111623;27;20106;-89
2021/08/03 11:44:35;;;;;;;3.45;2.80;;;20.40;69.80;;;;;;5111076;28;20020;-88
2021/08/03 11:47:10;;;;;;;5.22;3.70;;;20.60;68.20;;;;;;5099744;28;20383;-86
2021/08/03 11:49:41;;;;;;;6.22;2.72;;;20.70;66.40;;;;;;5122761;27;20039;-87
2021/08/03 11:52:12;;;;;;;4.13;2.80;;;20.80;65.70;;;;;;5126372;27;20064;-86
2021/08/03 11:54:44;;;;;;;2.45;2.22;;;20.80;65.20;;;;;;5115047;27;20102;-86
2021/08/03 11:57:30;;;;;;;4.07;2.65;;;20.90;66.20;;;;;;5120459;27;20598;-86
2021/08/03 12:00:00;;;;;;;7.32;5.32;;;21.00;65.30;;;;;;5092288;28;20738;-89
2021/08/03 12:02:25;;;;;;;8.15;5.07;;;21.10;64.20;;;;;;5107308;27;20034;-87
2021/08/03 12:05:13;;;;;;;8.90;6.35;;;21.10;64.00;;;;;;5107483;28;20015;-90
2021/08/03 12:07:47;;;;;;;5.68;3.47;;;21.00;64.50;;;;;;5107712;28;20024;-93
2021/08/03 12:10:13;;;;;;;5.80;3.75;;;21.00;64.00;;;;;;5111876;28;20391;-92
2021/08/03 12:12:45;;;;;;;5.53;3.75;;;20.70;63.50;;;;;;5097346;28;20701;-88
2021/08/03 12:15:14;;;;;;;3.80;2.20;;;20.50;63.00;;;;;;5078847;28;20140;-87
2021/08/03 12:17:40;;;;;;;4.28;2.42;;;20.30;61.70;;;;;;5079765;28;20491;-88
2021/08/03 12:20:26;;;;;;;3.35;1.90;;;20.20;63.20;;;;;;5066705;28;20535;-80
2021/08/03 12:22:52;;;;;;;3.47;1.90;;;20.10;62.00;;;;;;5056191;28;20060;-81
2021/08/03 12:25:18;;;;;;;4.07;3.03;;;19.80;61.80;;;;;;5072464;28;20527;-90
2021/08/03 12:27:45;;;;;;;2.72;2.13;;;19.80;63.20;;;;;;5072496;28;20025;-91
2021/08/03 12:30:35;;;;;;;2.80;1.90;;;19.70;63.50;;;;;;5076151;28;20025;-85
2021/08/03 12:33:00;;;;;;;2.50;2.03;;;19.50;63.50;;;;;;5070080;28;20043;-88
2021/08/03 12:35:26;;;;;;;2.85;2.00;;;19.40;63.30;;;;;;5068948;28;20036;-87
2021/08/03 12:37:52;;;;;;;2.38;1.73;;;19.10;64.40;;;;;;5067966;28;20056;-93
2021/08/03 12:40:34;;;;;;;3.67;2.28;;;19.10;65.20;;;;;;5071929;28;20035;-91
2021/08/03 12:43:00;;;;;;;2.17;1.90;;;19.10;66.20;;;;;;5070594;28;20021;-89
2021/08/03 12:45:27;;;;;;;4.20;2.40;;;19.10;67.00;;;;;;5097973;28;20029;-91
2021/08/03 12:47:57;;;;;;;4.30;2.75;;;19.10;67.50;;;;;;5095647;28;20039;-91
2021/08/03 12:50:25;;;;;;;4.70;2.78;;;19.00;67.40;;;;;;5068328;28;20027;-90
2021/08/03 12:52:57;;;;;;;2.80;2.20;;;18.90;67.80;;;;;;5071197;28;20028;-87
2021/08/03 12:55:26;;;;;;;4.72;2.63;;;18.90;68.20;;;;;;5075732;28;20063;-85
2021/08/03 12:57:56;;;;;;;2.90;2.40;;;18.80;68.20;;;;;;5072049;28;20028;-88
2021/08/03 13:00:40;;;;;;;3.70;2.15;;;18.80;68.60;;;;;;5075145;28;20108;-91
2021/08/03 13:03:08;;;;;;;5.35;3.42;;;18.70;68.70;;;;;;5075881;28;20040;-88